Time;durP1;ratioP1;P1;durP2;ratioP2;P2;SDS_P1;SDS_P2;PMS_P1;PMS_P2;Temp;Humidity;BMP_temperature;BMP_pressure;BME280_temperature;BME280_humidity;BME280_pressure;Samples;Min_cycle;Max_cycle;Signal;HPM_P1;HPM_P2
2022/01/22 07:47:11;;;;;;;29.33;11.40;;;;;;;0.84;100.00;100541.69;5110927;27;20384;-84
2022/01/22 07:49:41;;;;;;;26.35;12.20;;;;;;;0.93;100.00;100547.44;5110996;28;20056;-84
2022/01/22 07:52:08;;;;;;;28.88;13.15;;;;;;;1.02;100.00;100565.63;5110219;28;20142;-84
2022/01/22 07:54:36;;;;;;;33.50;14.15;;;;;;;1.10;100.00;100563.41;5109815;28;20044;-84
2022/01/22 07:57:03;;;;;;;30.58;11.82;;;;;;;1.19;100.00;100576.25;5109852;28;20048;-84
2022/01/22 07:59:30;;;;;;;26.55;12.30;;;;;;;1.30;100.00;100575.59;5110185;28;20502;-84
2022/01/22 08:01:57;;;;;;;31.60;11.70;;;;;;;1.32;100.00;100575.50;5110088;28;20498;-84
2022/01/22 08:04:26;;;;;;;23.92;11.23;;;;;;;1.26;100.00;100566.00;5110349;28;20387;-84
2022/01/22 08:06:53;;;;;;;34.53;12.38;;;;;;;1.27;100.00;100559.72;5110048;28;20127;-84
2022/01/22 08:09:21;;;;;;;24.98;11.35;;;;;;;1.42;100.00;100571.34;5109967;28;20052;-84
2022/01/22 08:11:50;;;;;;;20.83;10.50;;;;;;;1.48;100.00;100580.84;5109815;28;20052;-83
2022/01/22 08:14:20;;;;;;;22.25;10.75;;;;;;;1.36;100.00;100564.50;5104032;28;20071;-85
2022/01/22 08:16:49;;;;;;;23.73;10.90;;;;;;;1.54;100.00;100596.53;5090221;28;20036;-84
2022/01/22 08:19:23;;;;;;;26.58;10.65;;;;;;;1.53;100.00;100590.31;5090558;28;20059;-84
2022/01/22 08:21:51;;;;;;;20.73;9.82;;;;;;;1.47;100.00;100571.91;5089414;28;20466;-84
2022/01/22 08:24:24;;;;;;;29.75;10.00;;;;;;;1.55;100.00;100584.84;5089513;28;20402;-84
2022/01/22 08:27:06;;;;;;;21.27;10.20;;;;;;;1.55;100.00;100592.88;5089314;28;20560;-84
2022/01/22 08:29:39;;;;;;;23.20;10.20;;;;;;;1.63;100.00;100609.38;5089477;28;20201;-84
2022/01/22 08:32:27;;;;;;;20.30;9.35;;;;;;;1.48;100.00;100584.38;5089278;28;20459;-84
2022/01/22 08:37:43;;;;;;;17.33;9.82;;;;;;;1.62;100.00;100607.66;5088995;28;20058;-84
2022/01/22 08:40:11;;;;;;;22.58;10.48;;;;;;;1.53;100.00;100597.50;5089252;28;20139;-84
2022/01/22 08:42:38;;;;;;;28.67;10.77;;;;;;;1.61;100.00;100607.75;5088951;28;20503;-84
2022/01/22 08:45:08;;;;;;;22.25;10.43;;;;;;;1.62;100.00;100613.00;5088800;28;20044;-84
2022/01/22 08:47:36;;;;;;;;;;;;;;;1.72;100.00;100624.91;5089191;28;20079;-84
2022/01/22 08:50:04;;;;;;;22.40;9.43;;;;;;;1.54;100.00;100586.66;5088639;28;20329;-84
2022/01/22 08:52:35;;;;;;;22.63;10.85;;;;;;;1.63;100.00;100598.66;5088757;28;20080;-84
2022/01/22 08:55:03;;;;;;;26.00;11.30;;;;;;;1.72;100.00;100621.38;5088852;28;20052;-84
2022/01/22 08:57:30;;;;;;;29.50;10.60;;;;;;;1.73;100.00;100618.63;5080575;28;20044;-84
2022/01/22 08:59:56;;;;;;;25.70;10.60;;;;;;;1.75;100.00;100627.41;5073920;28;20544;-84
2022/01/22 09:02:24;;;;;;;18.30;10.18;;;;;;;1.74;100.00;100619.47;5073905;28;20063;-84
2022/01/22 09:04:52;;;;;;;20.77;9.15;;;;;;;1.69;100.00;100606.34;5075330;28;20076;-84
2022/01/22 09:07:18;;;;;;;22.23;9.98;;;;;;;1.58;100.00;100600.75;5074792;28;20115;-84
2022/01/22 09:09:48;;;;;;;21.25;11.23;;;;;;;1.81;100.00;100638.72;5071994;28;20543;-84
2022/01/22 09:12:28;;;;;;;20.73;10.07;;;;;;;1.79;100.00;100644.16;5066836;28;20049;-84
2022/01/22 09:14:55;;;;;;;;;;;;;;;1.80;100.00;100642.38;5073684;28;20093;-84
2022/01/22 09:17:28;;;;;;;27.35;10.45;;;;;;;1.81;100.00;100647.66;5071736;28;20367;-84
2022/01/22 09:19:58;;;;;;;22.35;9.98;;;;;;;1.70;100.00;100631.31;5075346;28;20487;-86
2022/01/22 09:22:28;;;;;;;25.33;10.23;;;;;;;1.69;100.00;100618.88;5061118;28;20476;-83
2022/01/22 09:24:54;;;;;;;18.90;10.40;;;;;;;1.75;100.00;100634.59;5059502;28;20391;-84
2022/01/22 09:27:25;;;;;;;25.85;11.20;;;;;;;1.67;100.00;100612.75;5075439;28;20045;-84
2022/01/22 09:29:59;;;;;;;18.40;9.65;;;;;;;1.81;100.00;100630.66;5076089;28;20110;-85
2022/01/22 09:32:29;;;;;;;18.23;8.68;;;;;;;1.88;100.00;100667.78;5069475;28;20127;-85
2022/01/22 09:35:04;;;;;;;21.60;10.93;;;;;;;1.82;100.00;100654.72;5054949;28;20057;-85
2022/01/22 09:37:31;;;;;;;29.83;10.57;;;;;;;1.73;100.00;100648.09;5064317;28;20470;-84
2022/01/22 09:40:00;;;;;;;20.45;10.80;;;;;;;1.89;100.00;100663.25;5071926;28;20052;-84
2022/01/22 09:42:49;;;;;;;27.52;11.18;;;;;;;1.77;100.00;100644.25;5067439;28;20048;-84
2022/01/22 09:45:22;;;;;;;29.37;9.83;;;;;;;1.87;100.00;100666.03;5052946;28;20057;-84
2022/01/22 09:47:52;;;;;;;27.80;10.50;;;;;;;1.93;100.00;100665.66;5057390;28;20056;-85
2022/01/22 09:50:35;;;;;;;29.35;10.73;;;;;;;1.88;100.00;100667.78;5075190;28;20110;-85
2022/01/22 09:53:19;;;;;;;23.77;11.23;;;;;;;1.90;100.00;100659.63;5074060;28;20053;-85
2022/01/22 09:55:48;;;;;;;30.77;11.18;;;;;;;1.77;100.00;100654.13;5072570;28;20044;-85
2022/01/22 09:58:16;;;;;;;24.25;9.93;;;;;;;1.83;100.00;100669.00;5062527;28;20052;-84
2022/01/22 10:00:44;;;;;;;23.85;11.23;;;;;;;1.79;100.00;100664.78;5074858;28;20110;-84
2022/01/22 10:03:19;;;;;;;20.73;9.63;;;;;;;1.89;100.00;100684.72;5074458;28;20078;-84
2022/01/22 10:05:51;;;;;;;28.42;10.23;;;;;;;1.89;100.00;100676.69;5074328;28;20113;-84
2022/01/22 10:08:24;;;;;;;23.52;9.88;;;;;;;1.85;100.00;100662.59;5074406;28;20048;-85
2022/01/22 10:10:53;;;;;;;20.98;9.43;;;;;;;1.87;100.00;100659.81;5074752;28;20059;-85
2022/01/22 10:13:45;;;;;;;21.40;9.68;;;;;;;1.89;100.00;100672.16;5074729;28;20056;-84
2022/01/22 10:16:18;;;;;;;21.08;8.93;;;;;;;2.03;100.00;100675.84;5074694;28;20462;-85
2022/01/22 10:18:47;;;;;;;27.75;10.70;;;;;;;1.99;100.00;100658.19;5074847;28;20462;-84
2022/01/22 10:21:18;;;;;;;27.67;10.10;;;;;;;1.92;100.00;100653.19;5074805;28;20041;-85
2022/01/22 10:23:47;;;;;;;27.58;9.73;;;;;;;1.99;100.00;100667.13;5073618;28;20045;-83
2022/01/22 10:26:19;;;;;;;27.65;10.98;;;;;;;1.93;100.00;100659.44;5074218;28;20510;-84
2022/01/22 10:29:00;;;;;;;21.10;9.05;;;;;;;1.88;100.00;100659.72;5075500;28;20541;-84
2022/01/22 10:31:42;;;;;;;24.13;10.48;;;;;;;2.03;100.00;100649.00;5074157;28;20498;-83
2022/01/22 10:34:11;;;;;;;20.13;10.40;;;;;;;2.01;100.00;100643.75;5074846;28;20056;-83
2022/01/22 10:36:43;;;;;;;24.42;10.43;;;;;;;2.04;100.00;100651.59;5074529;28;20102;-84
2022/01/22 10:39:25;;;;;;;25.20;10.15;;;;;;;2.04;100.00;100650.75;5074455;28;20045;-83
2022/01/22 10:41:55;;;;;;;25.77;9.93;;;;;;;2.05;100.00;100644.44;5074441;28;20068;-83
2022/01/22 10:44:47;;;;;;;19.20;9.88;;;;;;;2.15;100.00;100644.72;5073986;28;20047;-83
2022/01/22 10:47:22;;;;;;;21.30;9.88;;;;;;;2.19;100.00;100643.56;5073825;28;20036;-83
2022/01/22 10:50:14;;;;;;;18.73;8.73;;;;;;;2.18;100.00;100637.31;5074256;28;20048;-83
2022/01/22 10:52:47;;;;;;;14.05;9.35;;;;;;;2.18;100.00;100636.47;5071156;28;20060;-83
2022/01/22 10:55:14;;;;;;;24.50;10.13;;;;;;;2.08;100.00;100629.00;5074278;28;20088;-83
2022/01/22 10:57:41;;;;;;;22.80;9.85;;;;;;;2.13;100.00;100632.25;5073802;28;20150;-83
2022/01/22 11:00:20;;;;;;;20.40;9.35;;;;;;;2.09;100.00;100617.31;5074047;28;20044;-83
2022/01/22 11:02:47;;;;;;;22.55;10.20;;;;;;;2.25;100.00;100636.00;5073798;28;20113;-83
2022/01/22 11:05:34;;;;;;;17.48;9.02;;;;;;;2.30;100.00;100639.28;5073800;28;20051;-83
2022/01/22 11:08:12;;;;;;;20.73;10.15;;;;;;;2.22;100.00;100628.13;5073511;28;20132;-83
2022/01/22 11:10:40;;;;;;;22.23;9.18;;;;;;;2.20;100.00;100622.00;5073612;28;20558;-83
2022/01/22 11:13:07;;;;;;;22.58;9.25;;;;;;;2.30;100.00;100639.28;5073725;28;20054;-83
2022/01/22 11:15:36;;;;;;;21.05;8.45;;;;;;;2.34;100.00;100647.97;5073879;28;20442;-83
2022/01/22 11:18:04;;;;;;;18.48;7.85;;;;;;;2.22;100.00;100629.97;5073453;28;20084;-82
2022/01/22 11:20:40;;;;;;;17.65;9.27;;;;;;;2.28;100.00;100640.31;5073446;28;20052;-83
2022/01/22 11:23:09;;;;;;;15.45;8.65;;;;;;;2.29;100.00;100647.41;5073425;28;20105;-83
2022/01/22 11:25:36;;;;;;;28.90;10.15;;;;;;;2.33;100.00;100653.44;5074076;28;20391;-83
2022/01/22 11:28:03;;;;;;;27.27;10.90;;;;;;;2.28;100.00;100649.22;5073312;28;20066;-83
2022/01/22 11:30:34;;;;;;;20.90;10.18;;;;;;;2.37;100.00;100653.16;5073567;28;20139;-82
2022/01/22 11:33:09;;;;;;;16.13;8.45;;;;;;;2.37;100.00;100644.25;5073747;28;20053;-83
2022/01/22 11:35:54;;;;;;;16.70;8.35;;;;;;;2.45;100.00;100648.19;5073548;28;20063;-83
2022/01/22 11:38:31;;;;;;;21.35;9.43;;;;;;;2.39;100.00;100627.06;5073544;28;20049;-83
2022/01/22 11:41:08;;;;;;;17.25;8.88;;;;;;;2.48;100.00;100628.31;5073486;28;20044;-83
2022/01/22 11:44:06;;;;;;;20.15;7.40;;;;;;;2.57;100.00;100646.53;5054402;28;20447;-84
2022/01/22 11:46:37;;;;;;;19.67;8.55;;;;;;;2.46;100.00;100623.06;5069340;28;20044;-83
2022/01/22 11:49:13;;;;;;;15.13;7.90;;;;;;;2.48;100.00;100621.16;5073907;28;20394;-83
2022/01/22 11:51:41;;;;;;;24.95;9.02;;;;;;;2.63;100.00;100637.22;5073500;28;20121;-84
2022/01/22 11:54:08;;;;;;;17.70;9.38;;;;;;;2.60;100.00;100627.53;5073639;28;20052;-83
2022/01/22 11:56:46;;;;;;;25.58;7.93;;;;;;;2.60;100.00;100627.53;5072796;28;20048;-83
2022/01/22 11:59:34;;;;;;;16.52;7.68;;;;;;;2.67;100.00;100611.06;5072509;28;20435;-83
2022/01/22 12:02:06;;;;;;;15.70;7.10;;;;;;;2.52;100.00;100616.44;5060158;28;20389;-83
2022/01/22 12:05:01;;;;;;;17.13;7.10;;;;;;;2.52;100.00;100610.22;5073218;28;20056;-83
2022/01/22 12:07:29;;;;;;;15.18;6.90;;;;;;;2.62;100.00;100616.69;5073000;28;20044;-83
2022/01/22 12:10:32;;;;;;;15.95;7.72;;;;;;;2.62;100.00;100625.63;5069340;28;20105;-83
2022/01/22 12:16:11;;;;;;;11.98;7.38;;;;;;;2.65;100.00;100598.59;5073047;28;20467;-83
2022/01/22 12:18:47;;;;;;;15.20;7.47;;;;;;;2.67;100.00;100611.06;5072081;28;20412;-84
2022/01/22 12:21:33;;;;;;;21.33;8.02;;;;;;;2.89;100.00;100635.56;5071771;28;20072;-84
2022/01/22 12:24:05;;;;;;;15.90;7.82;;;;;;;2.78;100.00;100633.53;5068667;28;20047;-83
2022/01/22 12:26:47;;;;;;;20.95;7.70;;;;;;;2.77;100.00;100617.53;5067443;28;20052;-83
2022/01/22 12:29:38;;;;;;;21.30;7.30;;;;;;;2.70;100.00;100622.44;5067990;28;20093;-83
2022/01/22 12:32:22;;;;;;;21.60;7.60;;;;;;;2.75;100.00;100625.69;5068625;28;20135;-83
2022/01/22 12:35:17;;;;;;;15.90;7.22;;;;;;;2.66;100.00;100620.91;5073380;28;21490;-83
2022/01/22 12:38:01;;;;;;;16.27;7.38;;;;;;;2.73;100.00;100619.56;5063517;28;20076;-83
2022/01/22 12:40:33;;;;;;;16.02;6.57;;;;;;;2.80;100.00;100644.19;5069524;28;20044;-83
2022/01/22 12:43:14;;;;;;;20.60;7.53;;;;;;;2.70;100.00;100641.25;5071159;28;20049;-82
2022/01/22 12:45:44;;;;;;;16.38;7.40;;;;;;;2.73;100.00;100643.75;5074062;28;20121;-83
2022/01/22 12:48:15;;;;;;;14.18;7.18;;;;;;;2.76;100.00;100626.56;5075210;28;20372;-86
2022/01/22 12:50:45;;;;;;;17.13;7.70;;;;;;;2.73;100.00;100630.31;5074010;28;20083;-83
2022/01/22 12:53:17;;;;;;;18.20;8.88;;;;;;;2.89;100.00;100632.88;5075180;28;20048;-88
2022/01/22 13:01:53;;;;;;;21.02;7.97;;;;;;;2.79;100.00;100605.75;5074369;28;20075;-84
2022/01/22 13:04:24;;;;;;;12.15;6.05;;;;;;;2.93;100.00;100628.16;5068943;28;20128;-84
2022/01/22 13:06:54;;;;;;;11.52;4.97;;;;;;;2.78;100.00;100608.53;5077318;28;20048;-83
2022/01/22 13:09:41;;;;;;;12.63;6.53;;;;;;;2.88;100.00;100624.94;5068794;28;20384;-83
2022/01/22 13:12:17;;;;;;;24.77;8.38;;;;;;;2.78;100.00;100589.72;5068529;28;20132;-83
2022/01/22 13:15:05;;;;;;;13.55;7.45;;;;;;;2.94;100.00;100621.84;5076071;28;20059;-83
2022/01/22 13:17:34;;;;;;;13.93;7.38;;;;;;;2.89;100.00;100605.13;5074439;28;20055;-83
2022/01/22 13:20:01;;;;;;;14.15;7.47;;;;;;;2.89;100.00;100616.75;5072829;28;20048;-83
2022/01/22 13:22:34;;;;;;;19.10;8.15;;;;;;;2.97;100.00;100619.78;5070063;28;20044;-83
2022/01/22 13:25:11;;;;;;;20.75;7.93;;;;;;;2.83;100.00;100615.34;5067737;28;20131;-83
2022/01/22 13:27:40;;;;;;;10.02;5.00;;;;;;;2.77;100.00;100602.31;5072920;28;20040;-83
2022/01/22 13:30:14;;;;;;;12.98;6.40;;;;;;;2.80;100.00;100601.22;5068721;28;20097;-83
2022/01/22 13:32:52;;;;;;;19.95;7.28;;;;;;;2.71;100.00;100599.13;5070908;28;20798;-83
2022/01/22 13:35:32;;;;;;;10.63;6.28;;;;;;;2.79;100.00;100605.75;5064967;28;20056;-83
2022/01/22 13:49:38;;;;;;;13.77;7.82;;;;;;;2.88;100.00;100619.56;5055128;28;20137;-83
2022/01/22 13:52:07;;;;;;;17.23;7.20;;;;;;;2.86;100.00;100613.41;5073300;28;20076;-84
2022/01/22 13:54:39;;;;;;;14.38;7.60;;;;;;;2.79;100.00;100599.53;5060027;28;20139;-83
2022/01/22 13:57:10;;;;;;;13.45;6.45;;;;;;;2.90;100.00;100614.94;5064229;28;20136;-84
2022/01/22 13:59:38;;;;;;;14.55;7.47;;;;;;;2.77;100.00;100609.47;5072879;28;20047;-83
2022/01/22 14:02:12;;;;;;;13.95;7.15;;;;;;;2.92;100.00;100603.13;5071876;28;20058;-84
2022/01/22 14:04:45;;;;;;;16.63;6.32;;;;;;;2.77;100.00;100594.25;5073748;28;20114;-83
2022/01/22 14:07:28;;;;;;;15.95;7.82;;;;;;;2.96;100.00;100610.00;5073237;28;20435;-84
2022/01/22 14:10:03;;;;;;;21.55;7.38;;;;;;;2.89;100.00;100602.44;5073592;28;20052;-84
2022/01/22 14:12:58;;;;;;;19.33;7.70;;;;;;;2.89;100.00;100589.91;5054696;28;20053;-83
2022/01/22 14:15:33;;;;;;;16.65;7.43;;;;;;;2.88;100.00;100598.06;5066920;28;20049;-83
2022/01/22 14:20:50;;;;;;;18.35;8.45;;;;;;;2.89;100.00;100586.34;5065700;28;20091;-83
2022/01/22 14:23:20;;;;;;;20.90;7.93;;;;;;;2.87;100.00;100604.38;5070260;28;20170;-84
2022/01/22 14:26:12;;;;;;;19.38;8.88;;;;;;;2.88;100.00;100603.44;5064667;28;20048;-83
2022/01/22 14:28:48;;;;;;;18.45;9.38;;;;;;;3.06;100.00;100612.97;5074674;28;20072;-84
2022/01/22 14:31:30;;;;;;;19.52;9.63;;;;;;;2.92;100.00;100607.63;5074108;28;20055;-84
2022/01/22 14:34:01;;;;;;;22.20;8.60;;;;;;;2.82;100.00;100600.16;5070522;28;20078;-83
2022/01/22 14:36:32;;;;;;;19.92;8.63;;;;;;;2.91;100.00;100614.81;5072685;28;20045;-84
2022/01/22 14:39:12;;;;;;;22.40;10.20;;;;;;;2.90;100.00;100621.16;5074230;28;20470;-84
2022/01/22 14:44:48;;;;;;;19.58;9.57;;;;;;;2.99;100.00;100631.28;5073263;28;20094;-83
2022/01/22 14:47:17;;;;;;;15.23;8.40;;;;;;;3.09;100.00;100626.19;5072587;28;20476;-83
2022/01/22 14:49:49;;;;;;;17.15;8.32;;;;;;;2.92;100.00;100626.44;5061063;28;20047;-83
2022/01/22 14:52:18;;;;;;;21.00;8.20;;;;;;;2.91;100.00;100620.19;5067349;28;20036;-83
2022/01/22 14:54:47;;;;;;;18.08;8.20;;;;;;;2.89;100.00;100616.75;5073051;28;20047;-84
2022/01/22 14:57:15;;;;;;;18.35;8.63;;;;;;;2.79;100.00;100616.47;5062341;28;20122;-84
2022/01/22 14:59:45;;;;;;;20.70;8.07;;;;;;;2.87;100.00;100632.09;5060373;28;20049;-83
2022/01/22 15:02:14;;;;;;;16.88;8.20;;;;;;;2.77;100.00;100618.41;5067883;28;20040;-83
2022/01/22 15:04:44;;;;;;;19.08;8.70;;;;;;;2.89;100.00;100629.31;5069049;28;20048;-83
2022/01/22 15:07:14;;;;;;;22.20;8.77;;;;;;;2.86;100.00;100637.56;5072774;28;20049;-83
2022/01/22 15:09:55;;;;;;;16.98;9.90;;;;;;;2.80;100.00;100650.44;5073347;28;20056;-84
2022/01/22 15:12:22;;;;;;;19.83;8.80;;;;;;;2.88;100.00;100659.84;5073269;28;20048;-83
2022/01/22 15:15:40;;;;;;;22.30;8.63;;;;;;;2.73;100.00;100638.38;5073532;28;20515;-83
2022/01/22 15:18:13;;;;;;;23.58;9.75;;;;;;;2.64;100.00;100641.66;5071373;28;20052;-83
2022/01/22 15:20:46;;;;;;;15.82;9.38;;;;;;;2.68;100.00;100651.25;5071441;28;20051;-83
2022/01/22 15:23:13;;;;;;;18.80;10.00;;;;;;;2.79;100.00;100672.03;5072913;28;20102;-83
2022/01/22 15:25:40;;;;;;;25.35;10.48;;;;;;;2.71;100.00;100667.16;5072877;28;20052;-84
2022/01/22 15:28:10;;;;;;;24.48;9.75;;;;;;;2.63;100.00;100656.03;5065524;28;20068;-83
2022/01/22 15:30:39;;;;;;;20.65;9.25;;;;;;;2.68;100.00;100671.84;5053296;28;20114;-83
2022/01/22 15:33:18;;;;;;;19.83;9.32;;;;;;;2.65;100.00;100654.13;5057581;28;20442;-83
2022/01/22 15:35:45;;;;;;;18.17;9.30;;;;;;;2.75;100.00;100675.88;5061467;28;20048;-83
2022/01/22 15:38:12;;;;;;;21.40;9.05;;;;;;;2.62;100.00;100660.53;5072950;28;20059;-83
2022/01/22 15:40:45;;;;;;;20.33;9.75;;;;;;;2.76;100.00;100686.50;5073171;28;20044;-83
2022/01/22 15:43:16;;;;;;;23.55;9.45;;;;;;;2.59;100.00;100659.84;5073295;28;20060;-83
2022/01/22 15:45:45;;;;;;;21.52;10.13;;;;;;;2.67;100.00;100676.34;5072583;28;20052;-83
2022/01/22 15:48:13;;;;;;;23.95;9.75;;;;;;;2.58;100.00;100676.94;5072852;28;20131;-83
2022/01/22 15:50:40;;;;;;;24.40;9.68;;;;;;;2.64;100.00;100682.78;5072630;28;20667;-83
2022/01/22 15:53:07;;;;;;;22.80;10.57;;;;;;;2.58;100.00;100685.84;5072970;28;20048;-83
2022/01/22 15:55:34;;;;;;;22.27;10.48;;;;;;;2.65;100.00;100680.97;5073225;28;20049;-83
2022/01/22 15:58:03;;;;;;;25.27;11.00;;;;;;;2.61;100.00;100688.34;5072238;28;20055;-83
2022/01/22 16:00:33;;;;;;;23.05;12.20;;;;;;;2.53;100.00;100690.66;5072941;28;20098;-83
2022/01/22 16:03:03;;;;;;;30.88;11.07;;;;;;;2.61;100.00;100692.84;5053484;28;20091;-83
2022/01/22 16:05:29;;;;;;;22.20;11.53;;;;;;;2.61;100.00;100700.91;5054442;28;20541;-83
2022/01/22 16:07:59;;;;;;;21.38;9.95;;;;;;;2.59;100.00;100690.28;5074956;28;20059;-83
2022/01/22 16:10:26;;;;;;;23.40;12.20;;;;;;;2.54;100.00;100691.50;5077014;28;20560;-83
2022/01/22 16:12:57;;;;;;;22.50;11.60;;;;;;;2.75;100.00;100710.78;5076234;28;20052;-83
2022/01/22 16:15:24;;;;;;;22.92;11.07;;;;;;;2.72;100.00;100711.81;5076732;28;20056;-84
2022/01/22 16:17:54;;;;;;;22.83;11.52;;;;;;;2.60;100.00;100712.59;5076346;28;20476;-83
2022/01/22 16:20:47;;;;;;;27.23;12.05;;;;;;;2.50;100.00;100693.53;5069610;28;20131;-84
2022/01/22 16:23:14;;;;;;;21.90;9.98;;;;;;;2.58;100.00;100704.66;5058053;28;20392;-80
2022/01/22 16:25:41;;;;;;;20.67;9.80;;;;;;;2.54;100.00;100699.56;5066131;28;20577;-82
2022/01/22 16:28:17;;;;;;;21.35;11.43;;;;;;;2.63;100.00;100713.28;5074978;28;20123;-82
2022/01/22 16:30:44;;;;;;;22.98;10.52;;;;;;;2.60;100.00;100712.59;5075252;28;20051;-82
2022/01/22 16:33:56;;;;;;;26.15;9.70;;;;;;;2.71;100.00;100715.50;5076285;28;20044;-82
2022/01/22 16:36:44;;;;;;;22.58;11.52;;;;;;;2.59;100.00;100727.88;5006538;28;20098;-82
2022/01/22 16:39:14;;;;;;;29.52;11.80;;;;;;;2.60;100.00;100731.41;5060721;28;20124;-83
2022/01/22 16:41:52;;;;;;;27.98;11.43;;;;;;;2.55;100.00;100725.47;5075136;28;20506;-82
2022/01/22 16:44:26;;;;;;;32.40;14.90;;;;;;;2.56;100.00;100727.16;5067261;28;20492;-82
2022/01/22 16:53:24;;;;;;;19.85;10.38;;;;;;;2.57;100.00;100743.19;5071181;28;20131;-83
2022/01/22 16:55:49;;;;;;;20.50;10.48;;;;;;;2.53;100.00;100735.41;5074613;28;20412;-84
2022/01/22 16:58:17;;;;;;;19.65;9.55;;;;;;;2.43;100.00;100722.56;5067340;28;20041;-83
2022/01/22 17:00:58;;;;;;;21.95;10.13;;;;;;;2.37;100.00;100724.78;5074137;28;20052;-82
2022/01/22 17:03:29;;;;;;;21.52;10.52;;;;;;;2.40;100.00;100717.38;5071256;28;20040;-83
2022/01/22 17:05:57;;;;;;;18.73;10.05;;;;;;;2.46;100.00;100727.75;5074372;28;20059;-82
2022/01/22 17:08:30;;;;;;;30.20;11.52;;;;;;;2.54;100.00;100739.84;5072189;28;20079;-82
2022/01/22 17:11:05;;;;;;;20.15;9.88;;;;;;;2.39;100.00;100717.47;5070120;28;20045;-83
2022/01/22 17:16:19;;;;;;;30.80;12.65;;;;;;;2.47;100.00;100720.56;5070325;28;20628;-83
2022/01/22 17:18:46;;;;;;;30.33;12.43;;;;;;;2.38;100.00;100722.00;5068590;28;20053;-83
2022/01/22 17:21:15;;;;;;;25.08;10.90;;;;;;;2.53;100.00;100748.84;5070083;28;20050;-82
2022/01/22 17:23:43;;;;;;;22.60;10.40;;;;;;;2.37;100.00;100725.63;5069685;28;20044;-83
2022/01/22 17:26:09;;;;;;;26.33;11.20;;;;;;;2.38;100.00;100731.84;5060467;28;20404;-83
2022/01/22 17:28:36;;;;;;;18.27;10.90;;;;;;;2.41;100.00;100734.34;5055193;28;20056;-83
2022/01/22 17:31:04;;;;;;;23.02;11.43;;;;;;;2.39;100.00;100737.13;5055595;28;20253;-82
2022/01/22 17:33:30;;;;;;;19.27;10.68;;;;;;;2.44;100.00;100743.09;5071359;28;20048;-84
2022/01/22 17:35:57;;;;;;;22.67;11.43;;;;;;;2.47;100.00;100759.00;5071706;28;20051;-82
2022/01/22 17:38:24;;;;;;;31.50;12.05;;;;;;;2.29;100.00;100723.41;5066280;28;20123;-82
2022/01/22 17:41:01;;;;;;;29.25;11.10;;;;;;;2.37;100.00;100738.19;5072861;28;20491;-83
2022/01/22 17:43:30;;;;;;;25.13;11.13;;;;;;;2.39;100.00;100753.22;5060641;28;20052;-83
2022/01/22 17:45:59;;;;;;;24.63;12.88;;;;;;;2.37;100.00;100759.66;5063658;28;20132;-83
2022/01/22 17:48:26;;;;;;;22.20;11.95;;;;;;;2.38;100.00;100756.00;5065463;28;20075;-83
2022/01/22 17:50:55;;;;;;;22.30;10.65;;;;;;;2.38;100.00;100769.44;5065896;28;20047;-83
2022/01/22 17:53:23;;;;;;;27.45;11.35;;;;;;;2.34;100.00;100752.66;5058558;28;20054;-83
2022/01/22 17:55:51;;;;;;;29.60;13.05;;;;;;;2.34;100.00;100744.59;5061281;28;20041;-82
2022/01/22 17:58:21;;;;;;;28.25;13.48;;;;;;;2.33;100.00;100758.97;5062896;28;20075;-83
2022/01/22 18:00:49;;;;;;;27.10;12.43;;;;;;;2.33;100.00;100758.97;5065108;28;20048;-83
2022/01/22 18:03:18;;;;;;;30.77;12.23;;;;;;;2.34;100.00;100765.22;5069627;28;20439;-83
2022/01/22 18:05:45;;;;;;;25.13;12.60;;;;;;;2.26;100.00;100745.06;5064342;28;20048;-83
2022/01/22 18:08:27;;;;;;;31.73;13.68;;;;;;;2.31;100.00;100766.25;5061951;28;20056;-83
2022/01/22 18:10:56;;;;;;;26.30;12.05;;;;;;;2.32;100.00;100768.00;5057721;28;21440;-82
2022/01/22 18:13:27;;;;;;;31.17;13.60;;;;;;;2.32;100.00;100777.84;5066689;28;20044;-82
2022/01/22 18:15:55;;;;;;;25.35;12.52;;;;;;;2.18;100.00;100750.03;5067566;28;20048;-83
2022/01/22 18:18:23;;;;;;;36.63;14.18;;;;;;;2.26;100.00;100763.88;5060853;28;20106;-83
2022/01/22 18:20:50;;;;;;;30.35;13.20;;;;;;;2.21;100.00;100757.88;5071440;28;20044;-83
2022/01/22 18:23:20;;;;;;;27.42;13.35;;;;;;;2.16;100.00;100761.81;5067796;28;20051;-83
2022/01/22 18:25:47;;;;;;;26.63;14.55;;;;;;;2.19;100.00;100758.97;5070245;28;20076;-82
2022/01/22 18:28:15;;;;;;;28.48;13.48;;;;;;;2.23;100.00;100766.72;5071033;28;20060;-83
2022/01/22 18:30:43;;;;;;;25.33;12.82;;;;;;;2.18;100.00;100765.28;5068282;28;20036;-82
2022/01/22 18:33:10;;;;;;;31.67;15.05;;;;;;;2.24;100.00;100772.94;5073376;28;20151;-83
2022/01/22 18:35:40;;;;;;;27.25;13.85;;;;;;;2.04;100.00;100768.78;5067438;28;20067;-82
2022/01/22 18:38:06;;;;;;;34.80;14.10;;;;;;;1.99;100.00;100758.31;5063327;28;20052;-83
2022/01/22 18:40:33;;;;;;;35.97;15.82;;;;;;;2.03;100.00;100767.94;5070386;28;20442;-83
2022/01/22 18:43:00;;;;;;;27.15;13.73;;;;;;;1.94;100.00;100772.00;5070869;28;20566;-82
2022/01/22 18:45:30;;;;;;;29.52;15.23;;;;;;;2.07;100.00;100773.97;5073032;28;20518;-82
2022/01/22 18:48:04;;;;;;;38.10;16.33;;;;;;;1.91;100.00;100763.25;5069649;28;20060;-82
2022/01/22 18:50:34;;;;;;;33.60;15.93;;;;;;;1.95;100.00;100764.81;5066180;28;20575;-83
2022/01/22 18:53:03;;;;;;;33.30;15.82;;;;;;;2.00;100.00;100777.97;5060937;28;20167;-82
2022/01/22 18:55:32;;;;;;;46.20;17.60;;;;;;;1.85;100.00;100760.94;5068826;28;20087;-82
2022/01/22 18:57:59;;;;;;;31.92;15.00;;;;;;;1.99;100.00;100782.47;5071174;28;20045;-83
2022/01/22 19:00:26;;;;;;;38.78;18.88;;;;;;;2.02;100.00;100787.66;5071250;28;20098;-83
2022/01/22 19:02:53;;;;;;;34.50;16.98;;;;;;;1.98;100.00;100790.59;5066766;28;20044;-82
2022/01/22 19:05:21;;;;;;;36.42;15.93;;;;;;;1.85;100.00;100764.50;5066858;28;20045;-82
2022/01/22 19:07:47;;;;;;;42.92;15.93;;;;;;;1.91;100.00;100782.94;5070325;28;20036;-82
2022/01/22 19:10:16;;;;;;;43.63;17.10;;;;;;;1.89;100.00;100770.53;5060953;28;20122;-82
2022/01/22 19:12:43;;;;;;;39.22;17.27;;;;;;;1.83;100.00;100776.28;5064959;28;20063;-82
2022/01/22 19:15:12;;;;;;;29.80;15.38;;;;;;;1.79;100.00;100770.19;5070049;28;20483;-82
2022/01/22 19:17:49;;;;;;;34.92;16.20;;;;;;;1.95;100.00;100784.44;5068812;28;20468;-82
2022/01/22 19:20:18;;;;;;;40.75;17.40;;;;;;;1.90;100.00;100788.38;5069165;28;20108;-83
2022/01/22 19:22:52;;;;;;;36.75;15.20;;;;;;;1.93;100.00;100806.97;5070790;28;20049;-82
2022/01/22 19:25:45;;;;;;;44.03;18.48;;;;;;;1.91;100.00;100779.34;5063300;28;20075;-81
2022/01/22 19:28:13;;;;;;;33.65;17.08;;;;;;;1.90;100.00;100783.88;5070792;28;20047;-82
2022/01/22 19:30:43;;;;;;;33.42;17.58;;;;;;;1.91;100.00;100785.59;5065164;28;20047;-83
2022/01/22 19:33:12;;;;;;;40.85;17.20;;;;;;;1.93;100.00;100793.56;5068024;28;20044;-82
2022/01/22 19:35:39;;;;;;;37.42;17.63;;;;;;;1.81;100.00;100783.53;5068962;28;20052;-82
2022/01/22 19:38:11;;;;;;;35.95;16.05;;;;;;;1.86;100.00;100787.66;5067899;28;20051;-82
2022/01/22 19:40:39;;;;;;;39.28;18.75;;;;;;;1.84;100.00;100794.09;5068032;28;20180;-82
2022/01/22 19:43:07;;;;;;;37.78;17.17;;;;;;;1.69;100.00;100761.84;5067295;28;20049;-81
2022/01/22 19:45:36;;;;;;;46.38;19.67;;;;;;;1.87;100.00;100788.56;5067169;28;20101;-81
2022/01/22 19:48:04;;;;;;;45.60;18.90;;;;;;;1.75;100.00;100780.25;5062994;28;20143;-82
2022/01/22 19:50:32;;;;;;;47.90;20.00;;;;;;;1.74;100.00;100774.97;5069956;28;20124;-82
2022/01/22 19:53:01;;;;;;;42.58;18.25;;;;;;;1.78;100.00;100784.59;5070806;28;20051;-82
2022/01/22 19:55:30;;;;;;;41.72;20.90;;;;;;;1.72;100.00;100785.78;5067747;28;20492;-83
2022/01/22 19:58:02;;;;;;;45.63;20.27;;;;;;;1.74;100.00;100781.19;5070249;28;20044;-83
2022/01/22 20:00:31;;;;;;;45.35;20.98;;;;;;;1.68;100.00;100768.16;5070432;28;20538;-83
2022/01/22 20:02:58;;;;;;;46.63;19.85;;;;;;;1.74;100.00;100783.88;5069931;28;20916;-82